Perch, North Carolina
Current Conditions -  °F | °C
As of 1:15 PM on Wednesday 28 Jan 2015 (Local Time) from KMWK Reporting Station
Clear Clear  
Wind Chill: 39°   Ceiling: Unl
Heat Index: 43°   Visibility: 10mi
Dew Point: 16°   Wind: 6mph
Humidity: 34%   Direction: 350°N
Pressure: 30.22"   Gusts: NA
Location:  36.3244°N, 80.463°W
Report Text: KMWK 281815Z AUTO 35005KT 10SM CLR 06/M09 A3022 RMK AO2 T00611088
Loading
Personal Weather Stations






























Interactive Weather Map New forecast layout! Learn more

10-Day Weather Forecast

Advertisements
Track Severe Weather on mobile